createdAt,value
2019-03-21T00:01:14.950Z,0.10
2019-03-21T00:04:06.206Z,0.00
2019-03-21T00:06:54.557Z,0.00
2019-03-21T00:10:12.464Z,0.00
2019-03-21T00:13:00.531Z,-0.10
2019-03-21T00:15:48.850Z,-0.10
2019-03-21T00:18:37.557Z,-0.20
2019-03-21T00:21:26.000Z,-0.20
2019-03-21T00:24:14.459Z,-0.20
2019-03-21T00:27:02.866Z,-0.30
2019-03-21T00:29:53.498Z,-0.30
2019-03-21T00:32:42.012Z,-0.30
2019-03-21T00:35:30.124Z,-0.30
2019-03-21T00:38:18.646Z,-0.40
2019-03-21T00:41:07.090Z,-0.40
2019-03-21T00:43:55.896Z,-0.40
2019-03-21T00:46:44.267Z,-0.50
2019-03-21T00:49:32.559Z,-0.50
2019-03-21T00:52:20.706Z,-0.50
2019-03-21T00:55:10.384Z,-0.50
2019-03-21T00:57:58.790Z,-0.60
2019-03-21T01:00:50.031Z,-0.70
2019-03-21T01:03:38.379Z,-0.70
2019-03-21T01:06:26.901Z,-0.80
2019-03-21T01:09:15.837Z,-0.80
2019-03-21T01:12:04.332Z,-0.80
2019-03-21T01:14:52.834Z,-0.80
2019-03-21T01:17:41.146Z,-0.80
2019-03-21T01:20:29.217Z,-0.90
2019-03-21T01:23:17.795Z,-0.90
2019-03-21T01:26:06.534Z,-0.90
2019-03-21T01:28:55.212Z,-0.90
2019-03-21T01:31:43.431Z,-0.90
2019-03-21T01:34:31.813Z,-0.90
2019-03-21T01:37:21.096Z,-1.00
2019-03-21T01:40:14.318Z,-1.10
2019-03-21T01:43:03.085Z,-1.10
2019-03-21T01:45:50.918Z,-1.20
2019-03-21T01:48:39.502Z,-1.20
2019-03-21T01:51:27.886Z,-1.20
2019-03-21T01:54:16.820Z,-1.10
2019-03-21T01:57:05.496Z,-1.20
2019-03-21T01:59:53.864Z,-1.20
2019-03-21T02:02:42.194Z,-1.20
2019-03-21T02:05:30.519Z,-1.30
2019-03-21T02:08:19.014Z,-1.30
2019-03-21T02:11:07.077Z,-1.30
2019-03-21T02:13:55.097Z,-1.30
2019-03-21T02:16:46.506Z,-1.30
2019-03-21T02:19:35.051Z,-1.30
2019-03-21T02:22:23.439Z,-1.40
2019-03-21T02:25:23.253Z,-1.40
2019-03-21T02:28:11.725Z,-1.40
2019-03-21T02:31:01.347Z,-1.50
2019-03-21T02:33:49.761Z,-1.50
2019-03-21T02:36:38.485Z,-1.60
2019-03-21T02:39:27.325Z,-1.60
2019-03-21T02:42:16.119Z,-1.60
2019-03-21T02:45:08.898Z,-1.60
2019-03-21T02:47:55.232Z,-1.60
2019-03-21T02:50:43.973Z,-1.60
2019-03-21T02:53:32.383Z,-1.60
2019-03-21T02:56:21.281Z,-1.60
2019-03-21T02:59:09.743Z,-1.60
2019-03-21T03:01:58.771Z,-1.70
2019-03-21T03:04:47.133Z,-1.70
2019-03-21T03:07:35.972Z,-1.80
2019-03-21T03:10:30.477Z,-1.70
2019-03-21T03:13:19.347Z,-1.80
2019-03-21T03:16:08.011Z,-1.80
2019-03-21T03:18:56.359Z,-1.90
2019-03-21T03:21:45.249Z,-1.90
2019-03-21T03:24:34.840Z,-1.90
2019-03-21T03:27:23.183Z,-2.00
2019-03-21T03:30:17.725Z,-2.00
2019-03-21T03:33:06.472Z,-2.00
2019-03-21T03:35:55.045Z,-2.10
2019-03-21T03:38:43.581Z,-2.10
2019-03-21T03:41:31.958Z,-2.20
2019-03-21T03:44:21.055Z,-2.20
2019-03-21T03:47:09.624Z,-2.20
2019-03-21T03:49:58.069Z,-2.20
2019-03-21T03:52:47.037Z,-2.20
2019-03-21T03:55:36.584Z,-2.20
2019-03-21T03:58:25.545Z,-2.20
2019-03-21T04:01:14.446Z,-2.20
2019-03-21T04:04:03.333Z,-2.20
2019-03-21T04:06:51.870Z,-2.20
2019-03-21T04:09:40.752Z,-2.30
2019-03-21T04:12:29.796Z,-2.30
2019-03-21T04:15:19.069Z,-2.30
2019-03-21T04:18:07.456Z,-2.40
2019-03-21T04:20:56.696Z,-2.30
2019-03-21T04:23:45.187Z,-2.30
2019-03-21T04:26:35.329Z,-2.30
2019-03-21T04:29:23.821Z,-2.40
2019-03-21T04:32:12.517Z,-2.40
2019-03-21T04:35:03.763Z,-2.40
2019-03-21T04:37:52.335Z,-2.50
2019-03-21T04:40:40.887Z,-2.50
2019-03-21T04:43:29.318Z,-2.50
2019-03-21T04:46:17.452Z,-2.50
2019-03-21T04:49:05.573Z,-2.50
2019-03-21T04:51:53.776Z,-2.50
2019-03-21T04:54:42.965Z,-2.60
2019-03-21T04:57:31.656Z,-2.60
2019-03-21T05:00:22.774Z,-2.60
2019-03-21T05:03:11.445Z,-2.60
2019-03-21T05:06:00.175Z,-2.60
2019-03-21T05:08:48.597Z,-2.60
2019-03-21T05:11:37.273Z,-2.70
2019-03-21T05:14:25.826Z,-2.70
2019-03-21T05:17:14.426Z,-2.70
2019-03-21T05:20:02.921Z,-2.70
2019-03-21T05:22:51.504Z,-2.70
2019-03-21T05:25:40.306Z,-2.70
2019-03-21T05:28:28.736Z,-2.80
2019-03-21T05:31:20.824Z,-2.80
2019-03-21T05:34:09.168Z,-2.80
2019-03-21T05:36:57.621Z,-2.80
2019-03-21T05:39:45.987Z,-2.80
2019-03-21T05:42:34.724Z,-2.80
2019-03-21T05:45:23.201Z,-2.80
2019-03-21T05:48:11.551Z,-2.80
2019-03-21T05:50:59.978Z,-2.80
2019-03-21T05:53:48.584Z,-2.70
2019-03-21T05:56:37.194Z,-2.70
2019-03-21T05:59:25.566Z,-2.70
2019-03-21T06:02:13.996Z,-2.70
2019-03-21T06:05:02.898Z,-2.60
2019-03-21T06:07:58.673Z,-2.60
2019-03-21T06:10:48.648Z,-2.50
2019-03-21T06:13:37.184Z,-2.40
2019-03-21T06:16:25.545Z,-2.40
2019-03-21T06:19:34.306Z,-2.30
2019-03-21T06:22:56.875Z,-2.30
2019-03-21T06:26:25.163Z,-2.20
2019-03-21T06:29:13.778Z,-2.10
2019-03-21T06:32:02.311Z,-1.90
2019-03-21T06:34:50.280Z,-1.80
2019-03-21T06:37:38.374Z,-1.60
2019-03-21T06:46:02.661Z,-1.10
2019-03-21T07:08:25.186Z,0.70
2019-03-21T07:11:13.455Z,0.90
2019-03-21T07:14:01.901Z,1.00
2019-03-21T07:17:00.061Z,1.20
2019-03-21T07:19:40.640Z,1.30
2019-03-21T07:22:28.955Z,1.50
2019-03-21T07:25:17.422Z,1.60
2019-03-21T07:28:06.320Z,1.80
2019-03-21T07:30:54.475Z,2.00
2019-03-21T07:33:43.053Z,2.20
2019-03-21T07:36:31.410Z,2.30
2019-03-21T07:39:20.331Z,2.50
2019-03-21T07:42:08.838Z,2.70
2019-03-21T07:44:57.350Z,2.90
2019-03-21T07:47:45.910Z,3.00
2019-03-21T07:50:34.488Z,3.10
2019-03-21T07:53:23.362Z,3.30
2019-03-21T07:56:12.212Z,3.50
2019-03-21T07:59:00.643Z,3.70
2019-03-21T08:01:48.943Z,3.80
2019-03-21T08:04:37.686Z,4.00
2019-03-21T08:07:26.898Z,4.20
2019-03-21T08:10:15.336Z,4.30
2019-03-21T08:13:03.787Z,4.50
2019-03-21T08:15:51.851Z,4.70
2019-03-21T08:18:39.979Z,4.90
2019-03-21T08:21:28.542Z,5.20
2019-03-21T08:24:16.579Z,5.30
2019-03-21T08:27:04.542Z,5.50
2019-03-21T08:29:53.364Z,5.60
2019-03-21T08:32:42.455Z,5.80
2019-03-21T08:35:30.764Z,5.90
2019-03-21T08:38:19.317Z,6.10
2019-03-21T08:41:07.601Z,6.20
2019-03-21T08:43:55.932Z,6.30
2019-03-21T08:46:44.389Z,6.40
2019-03-21T08:49:32.863Z,6.50
2019-03-21T08:52:21.222Z,6.60
2019-03-21T08:55:09.484Z,6.80
2019-03-21T08:57:58.646Z,6.80
2019-03-21T09:00:47.061Z,6.90
2019-03-21T09:03:35.755Z,7.00
2019-03-21T09:06:24.226Z,7.20
2019-03-21T09:09:12.653Z,7.30
2019-03-21T09:12:01.295Z,7.30
2019-03-21T09:14:49.915Z,7.40
2019-03-21T09:17:38.489Z,7.50
2019-03-21T09:20:26.657Z,7.60
2019-03-21T09:26:02.467Z,7.90
2019-03-21T09:28:51.678Z,7.90
2019-03-21T09:31:39.678Z,8.10
2019-03-21T09:34:28.450Z,8.20
2019-03-21T09:37:16.912Z,8.40
2019-03-21T09:40:06.042Z,8.50
2019-03-21T09:42:54.474Z,8.60
2019-03-21T09:45:43.001Z,8.80
2019-03-21T09:48:31.532Z,8.90
2019-03-21T09:51:30.475Z,8.90
2019-03-21T09:54:11.053Z,8.90
2019-03-21T09:56:59.425Z,9.00
2019-03-21T09:59:47.716Z,9.10
2019-03-21T10:02:36.094Z,9.10
2019-03-21T10:05:24.811Z,9.20
2019-03-21T10:08:13.807Z,9.30
2019-03-21T10:11:01.932Z,9.40
2019-03-21T10:13:50.306Z,9.50
2019-03-21T10:16:39.028Z,9.60
2019-03-21T10:19:27.577Z,9.70
2019-03-21T10:22:16.437Z,9.70
2019-03-21T10:25:05.574Z,9.90
2019-03-21T10:27:54.334Z,10.00
2019-03-21T10:30:43.096Z,10.10
2019-03-21T10:33:31.827Z,10.10
2019-03-21T10:36:20.388Z,10.20
2019-03-21T10:39:09.148Z,10.30
2019-03-21T10:41:57.760Z,10.20
2019-03-21T10:44:46.503Z,10.30
2019-03-21T10:47:35.020Z,10.30
2019-03-21T10:50:31.436Z,10.30
2019-03-21T10:53:20.047Z,10.30
2019-03-21T10:56:08.750Z,10.40
2019-03-21T10:58:57.111Z,10.60
2019-03-21T11:01:45.710Z,10.60
2019-03-21T11:04:33.847Z,10.70
2019-03-21T11:07:19.929Z,10.80
2019-03-21T11:10:08.653Z,10.90
2019-03-21T11:12:57.230Z,11.00
2019-03-21T11:15:45.433Z,10.90
2019-03-21T11:18:36.297Z,11.00
2019-03-21T11:21:23.764Z,11.00
2019-03-21T11:24:12.211Z,11.00
2019-03-21T11:27:00.851Z,11.10
2019-03-21T11:29:48.916Z,11.20
2019-03-21T11:32:37.801Z,11.20
2019-03-21T11:35:26.174Z,11.10
2019-03-21T11:38:14.613Z,11.20
2019-03-21T11:41:03.308Z,11.20
2019-03-21T11:43:51.941Z,11.30
2019-03-21T11:46:40.674Z,11.40
2019-03-21T11:49:28.941Z,11.30
2019-03-21T11:52:18.420Z,11.50
2019-03-21T11:55:08.103Z,11.60
2019-03-21T11:57:56.816Z,11.70
2019-03-21T12:00:45.573Z,11.60
2019-03-21T12:03:34.212Z,11.60
2019-03-21T12:06:22.626Z,11.70
2019-03-21T12:09:11.111Z,11.70
2019-03-21T12:11:59.464Z,11.80
2019-03-21T12:14:47.670Z,11.90
2019-03-21T12:17:36.185Z,12.00
2019-03-21T12:20:32.725Z,11.90
2019-03-21T12:23:21.216Z,11.90
2019-03-21T12:26:09.772Z,12.00
2019-03-21T12:28:58.038Z,11.90
2019-03-21T12:31:46.164Z,11.90
2019-03-21T12:34:34.376Z,12.00
2019-03-21T12:37:22.767Z,12.10
2019-03-21T12:40:11.116Z,12.20
2019-03-21T12:42:59.522Z,12.30
2019-03-21T12:45:48.137Z,12.40
2019-03-21T12:48:36.453Z,12.30
2019-03-21T12:51:24.867Z,12.40
2019-03-21T12:54:13.313Z,12.50
2019-03-21T12:57:02.279Z,12.70
2019-03-21T12:59:50.844Z,12.70
2019-03-21T13:02:39.356Z,12.70
2019-03-21T13:05:29.009Z,12.80
2019-03-21T13:08:17.841Z,12.90
2019-03-21T13:11:05.944Z,13.00
2019-03-21T13:13:54.736Z,13.00
2019-03-21T13:16:43.334Z,12.90
2019-03-21T13:19:32.160Z,12.90
2019-03-21T13:22:20.678Z,13.00
2019-03-21T13:25:08.988Z,13.00
2019-03-21T13:27:57.765Z,12.90
2019-03-21T13:30:47.126Z,12.90
2019-03-21T13:33:35.360Z,12.90
2019-03-21T13:36:23.722Z,13.00
2019-03-21T13:39:12.894Z,13.10
2019-03-21T13:42:01.589Z,13.20
2019-03-21T13:44:50.324Z,13.20
2019-03-21T13:47:39.052Z,13.30
2019-03-21T13:50:28.192Z,13.30
2019-03-21T13:53:19.052Z,13.40
2019-03-21T13:56:07.380Z,13.50
2019-03-21T13:58:56.594Z,13.60
2019-03-21T14:01:45.403Z,13.50
2019-03-21T14:04:34.236Z,13.30
2019-03-21T14:07:23.390Z,13.30
2019-03-21T14:10:12.238Z,13.30
2019-03-21T14:13:01.064Z,13.40
2019-03-21T14:15:49.888Z,13.40
2019-03-21T14:18:38.906Z,13.40
2019-03-21T14:21:28.498Z,13.40
2019-03-21T14:24:16.468Z,13.40
2019-03-21T14:27:05.014Z,13.40
2019-03-21T14:30:01.191Z,13.50
2019-03-21T14:32:44.510Z,13.40
2019-03-21T14:35:33.213Z,13.40
2019-03-21T14:38:26.108Z,13.50
2019-03-21T14:41:12.510Z,13.40
2019-03-21T14:44:01.494Z,13.40
2019-03-21T14:46:50.564Z,13.40
2019-03-21T14:49:39.607Z,13.50
2019-03-21T14:52:28.146Z,13.50
2019-03-21T14:55:16.594Z,13.40
2019-03-21T14:58:05.418Z,13.30
2019-03-21T15:00:54.404Z,13.40
2019-03-21T15:03:42.828Z,13.40
2019-03-21T15:06:31.829Z,13.30
2019-03-21T15:09:20.429Z,13.30
2019-03-21T15:12:09.725Z,13.30
2019-03-21T15:15:00.737Z,13.20
2019-03-21T15:17:49.383Z,13.10
2019-03-21T15:20:38.283Z,13.10
2019-03-21T15:23:26.854Z,13.20
2019-03-21T15:26:15.467Z,13.20
2019-03-21T15:29:04.425Z,13.20
2019-03-21T15:31:53.132Z,13.20
2019-03-21T15:34:42.357Z,13.20
2019-03-21T15:37:31.500Z,13.10
2019-03-21T15:40:20.443Z,13.00
2019-03-21T15:43:09.114Z,13.00
2019-03-21T15:45:57.725Z,13.00
2019-03-21T15:48:46.585Z,12.90
2019-03-21T15:51:37.054Z,12.90
2019-03-21T15:54:25.846Z,12.90
2019-03-21T15:57:14.564Z,12.80
2019-03-21T16:00:03.468Z,12.70
2019-03-21T16:02:52.085Z,12.60
2019-03-21T16:05:41.650Z,12.60
2019-03-21T16:08:30.532Z,12.60
2019-03-21T16:11:19.107Z,12.50
2019-03-21T16:14:08.224Z,12.50
2019-03-21T16:17:04.923Z,12.60
2019-03-21T16:19:53.496Z,12.60
2019-03-21T16:22:47.628Z,12.50
2019-03-21T16:25:36.438Z,12.50
2019-03-21T16:28:25.470Z,12.60
2019-03-21T16:31:14.371Z,12.40
2019-03-21T16:34:02.930Z,12.40
2019-03-21T16:36:51.234Z,12.30
2019-03-21T16:39:39.918Z,12.30
2019-03-21T16:42:28.981Z,12.30
2019-03-21T16:45:17.839Z,12.30
2019-03-21T16:48:09.155Z,12.20
2019-03-21T16:50:57.222Z,12.10
2019-03-21T16:53:45.965Z,12.00
2019-03-21T16:56:34.339Z,12.00
2019-03-21T16:59:22.637Z,11.90
2019-03-21T17:02:11.097Z,11.80
2019-03-21T17:05:01.006Z,11.80
2019-03-21T17:07:49.379Z,11.70
2019-03-21T17:10:38.228Z,11.60
2019-03-21T17:13:27.316Z,11.50
2019-03-21T17:16:15.833Z,11.40
2019-03-21T17:19:04.127Z,11.30
2019-03-21T17:21:55.261Z,11.20
2019-03-21T17:24:44.094Z,11.10
2019-03-21T17:27:33.089Z,11.00
2019-03-21T17:30:27.193Z,10.90
2019-03-21T17:33:16.115Z,10.80
2019-03-21T17:36:05.451Z,10.70
2019-03-21T17:38:53.984Z,10.60
2019-03-21T17:41:45.239Z,10.50
2019-03-21T17:44:33.902Z,10.40
2019-03-21T17:47:22.830Z,10.30
2019-03-21T17:50:12.446Z,10.30
2019-03-21T17:53:01.363Z,10.30
2019-03-21T17:55:55.801Z,10.20
2019-03-21T17:58:44.304Z,10.10
2019-03-21T18:01:33.009Z,10.00
2019-03-21T18:04:21.859Z,9.90
2019-03-21T18:07:10.693Z,9.80
2019-03-21T18:09:59.634Z,9.70
2019-03-21T18:12:48.336Z,9.60
2019-03-21T18:15:36.851Z,9.60
2019-03-21T18:18:25.528Z,9.60
2019-03-21T18:21:14.379Z,9.60
2019-03-21T18:24:03.135Z,9.50
2019-03-21T18:26:51.854Z,9.50
2019-03-21T18:29:40.811Z,9.40
2019-03-21T18:32:29.587Z,9.40
2019-03-21T18:35:18.416Z,9.30
2019-03-21T18:38:07.132Z,9.20
2019-03-21T18:40:55.968Z,9.10
2019-03-21T18:43:44.717Z,9.10
2019-03-21T18:46:33.123Z,9.00
2019-03-21T18:49:21.809Z,9.00
2019-03-21T18:52:10.763Z,8.90
2019-03-21T18:55:06.111Z,8.80
2019-03-21T18:57:51.311Z,8.70
2019-03-21T19:00:44.066Z,8.60
2019-03-21T19:03:33.070Z,8.50
2019-03-21T19:06:21.373Z,8.40
2019-03-21T19:09:10.294Z,8.30
2019-03-21T19:11:59.286Z,8.30
2019-03-21T19:14:47.586Z,8.20
2019-03-21T19:17:40.436Z,8.00
2019-03-21T19:20:29.195Z,7.70
2019-03-21T19:23:17.749Z,7.50
2019-03-21T19:26:06.031Z,7.30
2019-03-21T19:28:54.674Z,7.10
2019-03-21T19:31:43.515Z,6.90
2019-03-21T19:34:32.537Z,6.80
2019-03-21T19:37:21.046Z,6.70
2019-03-21T19:40:09.786Z,6.60
2019-03-21T19:42:58.766Z,6.40
2019-03-21T19:45:48.385Z,6.30
2019-03-21T19:48:37.075Z,5.80
2019-03-21T19:51:25.598Z,5.50
2019-03-21T19:54:14.182Z,5.40
2019-03-21T19:57:03.158Z,5.40
2019-03-21T19:59:51.741Z,5.40
2019-03-21T20:02:40.438Z,5.40
2019-03-21T20:05:29.206Z,5.40
2019-03-21T20:08:18.149Z,5.40
2019-03-21T20:11:06.829Z,5.40
2019-03-21T20:13:57.315Z,5.30
2019-03-21T20:16:45.852Z,5.20
2019-03-21T20:19:34.596Z,5.10
2019-03-21T20:22:23.466Z,5.00
2019-03-21T20:25:14.862Z,4.90
2019-03-21T20:28:03.419Z,4.80
2019-03-21T20:30:52.344Z,4.80
2019-03-21T20:33:44.309Z,4.70
2019-03-21T20:36:33.051Z,4.60
2019-03-21T20:39:22.083Z,4.50
2019-03-21T20:42:10.524Z,4.50
2019-03-21T20:45:00.906Z,4.40
2019-03-21T20:47:49.693Z,4.30
2019-03-21T20:50:38.375Z,4.30
2019-03-21T20:53:27.586Z,4.20
2019-03-21T20:56:16.214Z,4.20
2019-03-21T20:59:04.968Z,4.10
2019-03-21T21:02:02.179Z,4.10
2019-03-21T21:04:44.102Z,4.00
2019-03-21T21:07:32.600Z,3.90
2019-03-21T21:10:21.201Z,3.80
2019-03-21T21:13:09.790Z,3.70
2019-03-21T21:15:58.131Z,3.60
2019-03-21T21:18:46.512Z,3.50
2019-03-21T21:21:35.463Z,3.40
2019-03-21T21:24:23.903Z,3.40
2019-03-21T21:27:12.745Z,3.30
2019-03-21T21:30:01.721Z,3.20
2019-03-21T21:32:50.387Z,3.20
2019-03-21T21:35:39.176Z,3.30
2019-03-21T21:38:27.738Z,3.30
2019-03-21T21:41:16.079Z,3.20
2019-03-21T21:44:04.584Z,3.20
2019-03-21T21:46:53.111Z,3.20
2019-03-21T21:49:42.060Z,3.20
2019-03-21T21:52:41.614Z,3.20
2019-03-21T21:55:21.414Z,3.10
2019-03-21T21:58:10.695Z,3.10
2019-03-21T22:00:59.544Z,3.00
2019-03-21T22:03:48.182Z,2.80
2019-03-21T22:06:37.097Z,2.60
2019-03-21T22:09:26.233Z,2.50
2019-03-21T22:12:15.523Z,2.40
2019-03-21T22:15:04.835Z,2.30
2019-03-21T22:17:53.494Z,2.30
2019-03-21T22:20:42.508Z,2.20
2019-03-21T22:23:31.063Z,2.20
2019-03-21T22:26:29.127Z,2.20
2019-03-21T22:29:09.556Z,2.20
2019-03-21T22:31:58.475Z,2.20
2019-03-21T22:34:47.173Z,2.20
2019-03-21T22:37:35.423Z,2.20
2019-03-21T22:40:23.688Z,2.20
2019-03-21T22:43:12.034Z,2.20
2019-03-21T22:46:00.230Z,2.20
2019-03-21T22:48:51.513Z,2.20
2019-03-21T22:51:40.205Z,2.10
2019-03-21T22:54:29.963Z,2.00
2019-03-21T22:57:18.429Z,2.00
2019-03-21T23:00:08.670Z,2.00
2019-03-21T23:02:56.926Z,1.90
2019-03-21T23:05:45.782Z,1.90
2019-03-21T23:08:34.449Z,1.90
2019-03-21T23:11:22.656Z,1.80
2019-03-21T23:14:11.663Z,1.80
2019-03-21T23:17:00.368Z,1.80
2019-03-21T23:19:48.636Z,1.80
2019-03-21T23:22:44.553Z,1.80
2019-03-21T23:25:33.229Z,1.80
2019-03-21T23:28:22.767Z,1.80
2019-03-21T23:31:11.094Z,1.80
2019-03-21T23:33:59.709Z,1.70
2019-03-21T23:36:48.380Z,1.70
2019-03-21T23:39:36.858Z,1.60
2019-03-21T23:42:25.703Z,1.60
2019-03-21T23:45:28.996Z,1.50
2019-03-21T23:48:18.155Z,1.50
2019-03-21T23:51:14.066Z,1.40
2019-03-21T23:54:02.588Z,1.40
2019-03-21T23:57:04.077Z,1.30
2019-03-21T23:59:56.821Z,1.30
